sensor_id;sensor_type;location;lat;lon;timestamp;P1;P2;P0
65803;PMS5003;65658;63.740;34.316;2023-05-23T00:07:10;35;39;
65803;PMS5003;65658;63.740;34.316;2023-05-23T00:10:58;24;24;
65803;PMS5003;65658;63.740;34.316;2023-05-23T00:18:56;47;58;
65803;PMS5003;65658;63.740;34.316;2023-05-23T00:23:01;72;78;
65803;PMS5003;65658;63.740;34.316;2023-05-23T00:26:54;46;58;
65803;PMS5003;65658;63.740;34.316;2023-05-23T00:30:43;23;23;
65803;PMS5003;65658;63.740;34.316;2023-05-23T00:34:28;27;29;
65803;PMS5003;65658;63.740;34.316;2023-05-23T00:38:19;58;70;
65803;PMS5003;65658;63.740;34.316;2023-05-23T00:42:11;149;170;
65803;PMS5003;65658;63.740;34.316;2023-05-23T00:46:03;52;65;
65803;PMS5003;65658;63.740;34.316;2023-05-23T00:58:14;88;101;
65803;PMS5003;65658;63.740;34.316;2023-05-23T01:02:05;109;123;
65803;PMS5003;65658;63.740;34.316;2023-05-23T01:05:57;210;253;
65803;PMS5003;65658;63.740;34.316;2023-05-23T01:09:48;252;296;
65803;PMS5003;65658;63.740;34.316;2023-05-23T01:14:03;383;453;
65803;PMS5003;65658;63.740;34.316;2023-05-23T01:30:28;112;127;
65803;PMS5003;65658;63.740;34.316;2023-05-23T01:34:21;160;179;
65803;PMS5003;65658;63.740;34.316;2023-05-23T01:38:15;116;126;
65803;PMS5003;65658;63.740;34.316;2023-05-23T01:42:18;128;137;
65803;PMS5003;65658;63.740;34.316;2023-05-23T01:46:09;173;189;
65803;PMS5003;65658;63.740;34.316;2023-05-23T01:50:02;105;113;
65803;PMS5003;65658;63.740;34.316;2023-05-23T01:53:54;159;177;
65803;PMS5003;65658;63.740;34.316;2023-05-23T02:01:57;50;63;
65803;PMS5003;65658;63.740;34.316;2023-05-23T02:05:48;117;129;
65803;PMS5003;65658;63.740;34.316;2023-05-23T02:09:43;57;72;
65803;PMS5003;65658;63.740;34.316;2023-05-23T02:13:47;112;122;
65803;PMS5003;65658;63.740;34.316;2023-05-23T02:21:48;209;244;
65803;PMS5003;65658;63.740;34.316;2023-05-23T02:25:41;201;225;
65803;PMS5003;65658;63.740;34.316;2023-05-23T02:29:46;165;180;
65803;PMS5003;65658;63.740;34.316;2023-05-23T02:33:38;82;88;
65803;PMS5003;65658;63.740;34.316;2023-05-23T02:37:31;121;132;
65803;PMS5003;65658;63.740;34.316;2023-05-23T02:45:54;47;58;
65803;PMS5003;65658;63.740;34.316;2023-05-23T02:49:47;127;137;
65803;PMS5003;65658;63.740;34.316;2023-05-23T02:53:42;111;119;
65803;PMS5003;65658;63.740;34.316;2023-05-23T02:57:33;29;30;
65803;PMS5003;65658;63.740;34.316;2023-05-23T03:09:22;26;26;
65803;PMS5003;65658;63.740;34.316;2023-05-23T03:13:08;20;21;
65803;PMS5003;65658;63.740;34.316;2023-05-23T03:16:54;19;19;
65803;PMS5003;65658;63.740;34.316;2023-05-23T03:24:35;20;20;
65803;PMS5003;65658;63.740;34.316;2023-05-23T03:28:22;19;19;
65803;PMS5003;65658;63.740;34.316;2023-05-23T03:32:09;21;21;
65803;PMS5003;65658;63.740;34.316;2023-05-23T03:35:55;21;22;
65803;PMS5003;65658;63.740;34.316;2023-05-23T03:39:42;23;26;
65803;PMS5003;65658;63.740;34.316;2023-05-23T03:43:29;24;24;
65803;PMS5003;65658;63.740;34.316;2023-05-23T03:47:17;23;23;
65803;PMS5003;65658;63.740;34.316;2023-05-23T03:51:04;18;18;
65803;PMS5003;65658;63.740;34.316;2023-05-23T03:58:43;19;19;
65803;PMS5003;65658;63.740;34.316;2023-05-23T04:02:41;24;24;
65803;PMS5003;65658;63.740;34.316;2023-05-23T04:10:19;19;19;
65803;PMS5003;65658;63.740;34.316;2023-05-23T04:18:10;24;24;
65803;PMS5003;65658;63.740;34.316;2023-05-23T04:21:58;19;19;
65803;PMS5003;65658;63.740;34.316;2023-05-23T04:25:44;17;17;
65803;PMS5003;65658;63.740;34.316;2023-05-23T04:29:42;28;28;
65803;PMS5003;65658;63.740;34.316;2023-05-23T04:33:28;20;20;
65803;PMS5003;65658;63.740;34.316;2023-05-23T04:37:25;18;18;
65803;PMS5003;65658;63.740;34.316;2023-05-23T04:41:12;18;18;
65803;PMS5003;65658;63.740;34.316;2023-05-23T04:44:58;17;17;
65803;PMS5003;65658;63.740;34.316;2023-05-23T04:48:46;32;38;
65803;PMS5003;65658;63.740;34.316;2023-05-23T04:52:33;24;24;
65803;PMS5003;65658;63.740;34.316;2023-05-23T04:56:22;20;21;
65803;PMS5003;65658;63.740;34.316;2023-05-23T05:03:59;22;23;
65803;PMS5003;65658;63.740;34.316;2023-05-23T05:07:46;21;21;
65803;PMS5003;65658;63.740;34.316;2023-05-23T05:11:33;19;20;
65803;PMS5003;65658;63.740;34.316;2023-05-23T05:15:20;22;23;
65803;PMS5003;65658;63.740;34.316;2023-05-23T05:19:19;20;20;
65803;PMS5003;65658;63.740;34.316;2023-05-23T05:26:57;19;19;
65803;PMS5003;65658;63.740;34.316;2023-05-23T05:30:44;21;25;
65803;PMS5003;65658;63.740;34.316;2023-05-23T05:34:31;23;23;
65803;PMS5003;65658;63.740;34.316;2023-05-23T05:38:18;21;22;
65803;PMS5003;65658;63.740;34.316;2023-05-23T05:42:06;22;24;
65803;PMS5003;65658;63.740;34.316;2023-05-23T05:46:04;23;24;
65803;PMS5003;65658;63.740;34.316;2023-05-23T05:49:52;23;24;
65803;PMS5003;65658;63.740;34.316;2023-05-23T05:53:40;20;20;
65803;PMS5003;65658;63.740;34.316;2023-05-23T05:57:27;19;21;
65803;PMS5003;65658;63.740;34.316;2023-05-23T06:08:56;20;21;
65803;PMS5003;65658;63.740;34.316;2023-05-23T06:16:33;20;20;
65803;PMS5003;65658;63.740;34.316;2023-05-23T06:20:31;19;19;
65803;PMS5003;65658;63.740;34.316;2023-05-23T06:24:19;19;20;
65803;PMS5003;65658;63.740;34.316;2023-05-23T06:28:05;17;19;
65803;PMS5003;65658;63.740;34.316;2023-05-23T06:31:52;16;17;
65803;PMS5003;65658;63.740;34.316;2023-05-23T06:35:39;17;17;
65803;PMS5003;65658;63.740;34.316;2023-05-23T06:39:25;18;18;
65803;PMS5003;65658;63.740;34.316;2023-05-23T06:47:04;16;17;
65803;PMS5003;65658;63.740;34.316;2023-05-23T06:51:01;21;21;
65803;PMS5003;65658;63.740;34.316;2023-05-23T06:54:47;18;18;
65803;PMS5003;65658;63.740;34.316;2023-05-23T06:58:34;16;16;
65803;PMS5003;65658;63.740;34.316;2023-05-23T07:02:20;18;18;
65803;PMS5003;65658;63.740;34.316;2023-05-23T07:06:18;18;18;
65803;PMS5003;65658;63.740;34.316;2023-05-23T07:10:05;18;20;
65803;PMS5003;65658;63.740;34.316;2023-05-23T07:13:53;18;19;
65803;PMS5003;65658;63.740;34.316;2023-05-23T07:17:39;19;19;
65803;PMS5003;65658;63.740;34.316;2023-05-23T07:21:36;19;21;
65803;PMS5003;65658;63.740;34.316;2023-05-23T07:33:04;16;16;
65803;PMS5003;65658;63.740;34.316;2023-05-23T07:36:51;15;16;
65803;PMS5003;65658;63.740;34.316;2023-05-23T07:40:38;19;19;
65803;PMS5003;65658;63.740;34.316;2023-05-23T07:44:35;17;17;
65803;PMS5003;65658;63.740;34.316;2023-05-23T07:48:22;14;15;
65803;PMS5003;65658;63.740;34.316;2023-05-23T07:52:09;16;16;
65803;PMS5003;65658;63.740;34.316;2023-05-23T07:59:58;17;17;
65803;PMS5003;65658;63.740;34.316;2023-05-23T08:03:44;16;16;
65803;PMS5003;65658;63.740;34.316;2023-05-23T08:15:18;16;16;
65803;PMS5003;65658;63.740;34.316;2023-05-23T08:19:05;11;12;
65803;PMS5003;65658;63.740;34.316;2023-05-23T08:22:51;11;11;
65803;PMS5003;65658;63.740;34.316;2023-05-23T08:26:38;8;8;
65803;PMS5003;65658;63.740;34.316;2023-05-23T08:34:15;9;9;
65803;PMS5003;65658;63.740;34.316;2023-05-23T08:41:52;8;8;
65803;PMS5003;65658;63.740;34.316;2023-05-23T08:45:39;7;7;
65803;PMS5003;65658;63.740;34.316;2023-05-23T08:49:25;7;7;
65803;PMS5003;65658;63.740;34.316;2023-05-23T08:53:13;9;9;
65803;PMS5003;65658;63.740;34.316;2023-05-23T08:57:00;6;6;
65803;PMS5003;65658;63.740;34.316;2023-05-23T09:00:46;6;7;
65803;PMS5003;65658;63.740;34.316;2023-05-23T09:04:32;7;7;
65803;PMS5003;65658;63.740;34.316;2023-05-23T09:08:19;9;10;
65803;PMS5003;65658;63.740;34.316;2023-05-23T09:12:05;6;6;
65803;PMS5003;65658;63.740;34.316;2023-05-23T09:27:23;9;10;
65803;PMS5003;65658;63.740;34.316;2023-05-23T09:39:01;32;36;
65803;PMS5003;65658;63.740;34.316;2023-05-23T09:46:38;7;8;
65803;PMS5003;65658;63.740;34.316;2023-05-23T09:50:25;6;8;
65803;PMS5003;65658;63.740;34.316;2023-05-23T09:54:14;9;10;
65803;PMS5003;65658;63.740;34.316;2023-05-23T09:58:03;35;46;
65803;PMS5003;65658;63.740;34.316;2023-05-23T10:05:55;111;123;
65803;PMS5003;65658;63.740;34.316;2023-05-23T10:10:02;93;102;
65803;PMS5003;65658;63.740;34.316;2023-05-23T10:13:54;61;73;
65803;PMS5003;65658;63.740;34.316;2023-05-23T10:21:42;14;14;
65803;PMS5003;65658;63.740;34.316;2023-05-23T10:25:32;116;129;
65803;PMS5003;65658;63.740;34.316;2023-05-23T10:37:31;109;114;
65803;PMS5003;65658;63.740;34.316;2023-05-23T10:49:04;5;5;
65803;PMS5003;65658;63.740;34.316;2023-05-23T10:52:52;6;7;
65803;PMS5003;65658;63.740;34.316;2023-05-23T10:56:39;6;6;
65803;PMS5003;65658;63.740;34.316;2023-05-23T11:00:24;7;7;
65803;PMS5003;65658;63.740;34.316;2023-05-23T11:11:54;7;7;
65803;PMS5003;65658;63.740;34.316;2023-05-23T11:15:51;7;7;
65803;PMS5003;65658;63.740;34.316;2023-05-23T11:19:37;7;7;
65803;PMS5003;65658;63.740;34.316;2023-05-23T11:23:23;7;7;
65803;PMS5003;65658;63.740;34.316;2023-05-23T11:27:10;7;7;
65803;PMS5003;65658;63.740;34.316;2023-05-23T11:30:56;8;8;
65803;PMS5003;65658;63.740;34.316;2023-05-23T11:34:42;8;8;
65803;PMS5003;65658;63.740;34.316;2023-05-23T11:38:28;6;7;
65803;PMS5003;65658;63.740;34.316;2023-05-23T11:46:07;7;7;
65803;PMS5003;65658;63.740;34.316;2023-05-23T11:49:54;4;4;
65803;PMS5003;65658;63.740;34.316;2023-05-23T11:53:41;44;53;
65803;PMS5003;65658;63.740;34.316;2023-05-23T12:01:27;39;48;
65803;PMS5003;65658;63.740;34.316;2023-05-23T12:05:50;69;78;
65803;PMS5003;65658;63.740;34.316;2023-05-23T12:10:02;7;7;
65803;PMS5003;65658;63.740;34.316;2023-05-23T12:13:51;44;56;
65803;PMS5003;65658;63.740;34.316;2023-05-23T12:22:08;75;82;
65803;PMS5003;65658;63.740;34.316;2023-05-23T12:26:05;149;158;
65803;PMS5003;65658;63.740;34.316;2023-05-23T12:34:06;84;97;
65803;PMS5003;65658;63.740;34.316;2023-05-23T12:37:58;117;128;
65803;PMS5003;65658;63.740;34.316;2023-05-23T12:53:44;6;6;
65803;PMS5003;65658;63.740;34.316;2023-05-23T13:01:21;9;9;
65803;PMS5003;65658;63.740;34.316;2023-05-23T13:09:09;7;7;
65803;PMS5003;65658;63.740;34.316;2023-05-23T13:12:55;8;8;
65803;PMS5003;65658;63.740;34.316;2023-05-23T13:16:41;7;7;
65803;PMS5003;65658;63.740;34.316;2023-05-23T13:20:28;9;9;
65803;PMS5003;65658;63.740;34.316;2023-05-23T13:24:14;9;10;
65803;PMS5003;65658;63.740;34.316;2023-05-23T13:28:11;7;7;
65803;PMS5003;65658;63.740;34.316;2023-05-23T13:31:58;7;7;
65803;PMS5003;65658;63.740;34.316;2023-05-23T13:39:34;8;8;
65803;PMS5003;65658;63.740;34.316;2023-05-23T13:43:21;8;8;
65803;PMS5003;65658;63.740;34.316;2023-05-23T13:47:13;9;9;
65803;PMS5003;65658;63.740;34.316;2023-05-23T13:51:00;9;9;
65803;PMS5003;65658;63.740;34.316;2023-05-23T13:54:46;9;9;
65803;PMS5003;65658;63.740;34.316;2023-05-23T13:58:32;6;6;
65803;PMS5003;65658;63.740;34.316;2023-05-23T14:02:19;10;11;
65803;PMS5003;65658;63.740;34.316;2023-05-23T14:06:05;10;10;
65803;PMS5003;65658;63.740;34.316;2023-05-23T14:09:51;8;9;
65803;PMS5003;65658;63.740;34.316;2023-05-23T14:17:28;9;9;
65803;PMS5003;65658;63.740;34.316;2023-05-23T14:21:15;8;9;
65803;PMS5003;65658;63.740;34.316;2023-05-23T14:25:01;10;10;
65803;PMS5003;65658;63.740;34.316;2023-05-23T14:28:47;10;10;
65803;PMS5003;65658;63.740;34.316;2023-05-23T14:32:34;10;12;
65803;PMS5003;65658;63.740;34.316;2023-05-23T14:36:20;9;9;
65803;PMS5003;65658;63.740;34.316;2023-05-23T14:40:07;8;8;
65803;PMS5003;65658;63.740;34.316;2023-05-23T14:43:53;9;9;
65803;PMS5003;65658;63.740;34.316;2023-05-23T14:47:39;8;8;
65803;PMS5003;65658;63.740;34.316;2023-05-23T14:51:25;10;10;
65803;PMS5003;65658;63.740;34.316;2023-05-23T14:55:12;8;8;
65803;PMS5003;65658;63.740;34.316;2023-05-23T14:58:59;11;11;
65803;PMS5003;65658;63.740;34.316;2023-05-23T15:02:45;10;10;
65803;PMS5003;65658;63.740;34.316;2023-05-23T15:06:31;9;9;
65803;PMS5003;65658;63.740;34.316;2023-05-23T15:10:18;10;10;
65803;PMS5003;65658;63.740;34.316;2023-05-23T15:14:04;12;12;
65803;PMS5003;65658;63.740;34.316;2023-05-23T15:21:42;9;9;
65803;PMS5003;65658;63.740;34.316;2023-05-23T15:40:51;11;11;
65803;PMS5003;65658;63.740;34.316;2023-05-23T15:44:37;12;14;
65803;PMS5003;65658;63.740;34.316;2023-05-23T15:48:25;12;12;
65803;PMS5003;65658;63.740;34.316;2023-05-23T15:52:12;13;13;
65803;PMS5003;65658;63.740;34.316;2023-05-23T15:55:58;13;13;
65803;PMS5003;65658;63.740;34.316;2023-05-23T15:59:44;11;11;
65803;PMS5003;65658;63.740;34.316;2023-05-23T16:03:31;13;13;
65803;PMS5003;65658;63.740;34.316;2023-05-23T16:07:17;15;15;
65803;PMS5003;65658;63.740;34.316;2023-05-23T16:14:54;12;12;
65803;PMS5003;65658;63.740;34.316;2023-05-23T16:18:40;12;12;
65803;PMS5003;65658;63.740;34.316;2023-05-23T16:26:18;16;17;
65803;PMS5003;65658;63.740;34.316;2023-05-23T16:41:40;14;15;
65803;PMS5003;65658;63.740;34.316;2023-05-23T16:45:38;13;13;
65803;PMS5003;65658;63.740;34.316;2023-05-23T16:53:26;13;13;
65803;PMS5003;65658;63.740;34.316;2023-05-23T16:57:12;15;15;
65803;PMS5003;65658;63.740;34.316;2023-05-23T17:00:59;14;15;
65803;PMS5003;65658;63.740;34.316;2023-05-23T17:08:37;15;16;
65803;PMS5003;65658;63.740;34.316;2023-05-23T17:12:24;14;15;
65803;PMS5003;65658;63.740;34.316;2023-05-23T17:16:10;11;12;
65803;PMS5003;65658;63.740;34.316;2023-05-23T17:23:47;15;15;
65803;PMS5003;65658;63.740;34.316;2023-05-23T17:31:24;12;12;
65803;PMS5003;65658;63.740;34.316;2023-05-23T17:35:10;13;13;
65803;PMS5003;65658;63.740;34.316;2023-05-23T17:42:48;13;13;
65803;PMS5003;65658;63.740;34.316;2023-05-23T17:46:34;11;11;
65803;PMS5003;65658;63.740;34.316;2023-05-23T17:50:20;11;11;
65803;PMS5003;65658;63.740;34.316;2023-05-23T17:54:07;12;12;
65803;PMS5003;65658;63.740;34.316;2023-05-23T18:01:44;12;12;
65803;PMS5003;65658;63.740;34.316;2023-05-23T18:05:29;12;12;
65803;PMS5003;65658;63.740;34.316;2023-05-23T18:13:16;91;99;
65803;PMS5003;65658;63.740;34.316;2023-05-23T18:17:19;51;66;
65803;PMS5003;65658;63.740;34.316;2023-05-23T18:21:23;48;57;
65803;PMS5003;65658;63.740;34.316;2023-05-23T18:25:13;33;37;
65803;PMS5003;65658;63.740;34.316;2023-05-23T18:29:02;27;29;
65803;PMS5003;65658;63.740;34.316;2023-05-23T18:36:42;14;14;
65803;PMS5003;65658;63.740;34.316;2023-05-23T18:44:30;13;14;
65803;PMS5003;65658;63.740;34.316;2023-05-23T18:48:16;10;10;
65803;PMS5003;65658;63.740;34.316;2023-05-23T18:52:03;14;15;
65803;PMS5003;65658;63.740;34.316;2023-05-23T18:55:49;14;14;
65803;PMS5003;65658;63.740;34.316;2023-05-23T18:59:37;13;13;
65803;PMS5003;65658;63.740;34.316;2023-05-23T19:03:23;13;13;
65803;PMS5003;65658;63.740;34.316;2023-05-23T19:07:09;15;15;
65803;PMS5003;65658;63.740;34.316;2023-05-23T19:10:55;16;16;
65803;PMS5003;65658;63.740;34.316;2023-05-23T19:14:42;17;17;
65803;PMS5003;65658;63.740;34.316;2023-05-23T19:18:29;15;16;
65803;PMS5003;65658;63.740;34.316;2023-05-23T19:22:16;17;17;
65803;PMS5003;65658;63.740;34.316;2023-05-23T19:26:02;14;14;
65803;PMS5003;65658;63.740;34.316;2023-05-23T19:29:48;17;18;
65803;PMS5003;65658;63.740;34.316;2023-05-23T19:37:27;16;16;
65803;PMS5003;65658;63.740;34.316;2023-05-23T19:41:12;24;24;
65803;PMS5003;65658;63.740;34.316;2023-05-23T19:45:00;18;18;
65803;PMS5003;65658;63.740;34.316;2023-05-23T19:48:48;20;20;
65803;PMS5003;65658;63.740;34.316;2023-05-23T19:52:35;21;21;
65803;PMS5003;65658;63.740;34.316;2023-05-23T19:56:21;20;20;
65803;PMS5003;65658;63.740;34.316;2023-05-23T20:00:08;16;16;
65803;PMS5003;65658;63.740;34.316;2023-05-23T20:07:45;15;16;
65803;PMS5003;65658;63.740;34.316;2023-05-23T20:11:33;12;13;
65803;PMS5003;65658;63.740;34.316;2023-05-23T20:15:19;16;16;
65803;PMS5003;65658;63.740;34.316;2023-05-23T20:19:07;15;15;
65803;PMS5003;65658;63.740;34.316;2023-05-23T20:22:53;14;14;
65803;PMS5003;65658;63.740;34.316;2023-05-23T20:30:31;15;15;
65803;PMS5003;65658;63.740;34.316;2023-05-23T20:38:10;15;15;
65803;PMS5003;65658;63.740;34.316;2023-05-23T20:41:57;14;15;
65803;PMS5003;65658;63.740;34.316;2023-05-23T20:45:44;17;18;
65803;PMS5003;65658;63.740;34.316;2023-05-23T20:57:12;15;15;
65803;PMS5003;65658;63.740;34.316;2023-05-23T21:00:58;14;15;
65803;PMS5003;65658;63.740;34.316;2023-05-23T21:12:26;13;13;
65803;PMS5003;65658;63.740;34.316;2023-05-23T21:16:12;11;11;
65803;PMS5003;65658;63.740;34.316;2023-05-23T21:19:59;15;15;
65803;PMS5003;65658;63.740;34.316;2023-05-23T21:23:46;13;13;
65803;PMS5003;65658;63.740;34.316;2023-05-23T21:27:31;13;14;
65803;PMS5003;65658;63.740;34.316;2023-05-23T21:31:18;14;14;
65803;PMS5003;65658;63.740;34.316;2023-05-23T21:35:04;12;12;
65803;PMS5003;65658;63.740;34.316;2023-05-23T21:38:50;13;13;
65803;PMS5003;65658;63.740;34.316;2023-05-23T21:42:37;13;13;
65803;PMS5003;65658;63.740;34.316;2023-05-23T21:46:24;12;12;
65803;PMS5003;65658;63.740;34.316;2023-05-23T21:50:10;14;14;
65803;PMS5003;65658;63.740;34.316;2023-05-23T21:53:57;14;14;
65803;PMS5003;65658;63.740;34.316;2023-05-23T21:57:44;11;13;
65803;PMS5003;65658;63.740;34.316;2023-05-23T22:01:30;12;12;
65803;PMS5003;65658;63.740;34.316;2023-05-23T22:09:07;12;12;
65803;PMS5003;65658;63.740;34.316;2023-05-23T22:16:45;13;13;
65803;PMS5003;65658;63.740;34.316;2023-05-23T22:20:32;15;16;
65803;PMS5003;65658;63.740;34.316;2023-05-23T22:24:19;14;15;
65803;PMS5003;65658;63.740;34.316;2023-05-23T22:31:56;15;16;
65803;PMS5003;65658;63.740;34.316;2023-05-23T22:39:34;14;14;
65803;PMS5003;65658;63.740;34.316;2023-05-23T22:43:20;12;12;
65803;PMS5003;65658;63.740;34.316;2023-05-23T22:47:06;12;12;
65803;PMS5003;65658;63.740;34.316;2023-05-23T22:51:04;13;14;
65803;PMS5003;65658;63.740;34.316;2023-05-23T22:54:51;17;18;
65803;PMS5003;65658;63.740;34.316;2023-05-23T22:58:38;13;13;
65803;PMS5003;65658;63.740;34.316;2023-05-23T23:02:24;16;17;
65803;PMS5003;65658;63.740;34.316;2023-05-23T23:06:10;13;13;
65803;PMS5003;65658;63.740;34.316;2023-05-23T23:09:57;14;14;
65803;PMS5003;65658;63.740;34.316;2023-05-23T23:13:43;13;14;
65803;PMS5003;65658;63.740;34.316;2023-05-23T23:21:21;14;14;
65803;PMS5003;65658;63.740;34.316;2023-05-23T23:25:18;13;14;
65803;PMS5003;65658;63.740;34.316;2023-05-23T23:32:56;17;18;
65803;PMS5003;65658;63.740;34.316;2023-05-23T23:36:42;13;14;
65803;PMS5003;65658;63.740;34.316;2023-05-23T23:40:29;13;13;
65803;PMS5003;65658;63.740;34.316;2023-05-23T23:44:14;14;15;
65803;PMS5003;65658;63.740;34.316;2023-05-23T23:48:01;14;15;
65803;PMS5003;65658;63.740;34.316;2023-05-23T23:55:38;13;13;
65803;PMS5003;65658;63.740;34.316;2023-05-23T23:59:25;14;15;
